Time;durP1;ratioP1;P1;durP2;ratioP2;P2;SDS_P1;SDS_P2;PMS_P1;PMS_P2;Temp;Humidity;BMP_temperature;BMP_pressure;BME280_temperature;BME280_humidity;BME280_pressure;Samples;Min_cycle;Max_cycle;Signal;HPM_P1;HPM_P2
2023/05/11 00:02:15;;;;;;;38.90;6.40;;;21.00;60.80;;;;;;5007892;28;20288;-91
2023/05/11 00:04:44;;;;;;;33.10;6.13;;;21.00;60.80;;;;;;5005028;28;20299;-92
2023/05/11 00:07:11;;;;;;;40.80;6.63;;;21.00;60.90;;;;;;5007510;28;20244;-91
2023/05/11 00:09:40;;;;;;;38.90;6.37;;;20.90;61.60;;;;;;5006752;28;20605;-92
2023/05/11 00:12:08;;;;;;;37.77;6.43;;;20.90;60.80;;;;;;5007568;28;20732;-91
2023/05/11 00:14:36;;;;;;;26.43;5.43;;;20.90;60.80;;;;;;5008366;28;20213;-91
2023/05/11 00:17:04;;;;;;;37.47;6.57;;;20.90;60.80;;;;;;5009693;28;20267;-91
2023/05/11 00:19:31;;;;;;;47.70;7.50;;;20.90;60.80;;;;;;5010408;28;20221;-92
2023/05/11 00:22:00;;;;;;;39.50;6.77;;;20.90;60.80;;;;;;5011329;28;20227;-93
2023/05/11 00:24:27;;;;;;;37.13;6.77;;;20.80;60.70;;;;;;5011610;28;20293;-91
2023/05/11 00:26:54;;;;;;;48.20;7.23;;;20.80;60.70;;;;;;5010965;28;20296;-92
2023/05/11 00:29:22;;;;;;;36.20;6.80;;;20.80;60.80;;;;;;5011188;28;20293;-93
2023/05/11 00:31:49;;;;;;;58.30;8.00;;;20.70;60.60;;;;;;5016768;28;20244;-92
2023/05/11 00:34:18;;;;;;;38.77;6.40;;;20.70;60.70;;;;;;5010309;28;20209;-92
2023/05/11 00:36:45;;;;;;;38.57;6.47;;;20.80;60.80;;;;;;5004750;28;20753;-94
2023/05/11 00:39:12;;;;;;;42.60;7.10;;;20.70;60.70;;;;;;5011615;28;20197;-93
2023/05/11 00:41:39;;;;;;;39.87;6.97;;;20.70;60.70;;;;;;5011399;28;20229;-92
2023/05/11 00:44:07;;;;;;;36.70;6.73;;;20.60;60.60;;;;;;5011042;28;20306;-94
2023/05/11 00:46:36;;;;;;;30.70;5.57;;;20.60;60.60;;;;;;5011809;28;20217;-93
2023/05/11 00:49:03;;;;;;;36.10;6.10;;;20.70;60.70;;;;;;5023958;28;20300;-93
2023/05/11 00:51:31;;;;;;;35.67;6.57;;;20.60;60.60;;;;;;5012461;28;20236;-94
2023/05/11 00:53:59;;;;;;;45.87;7.13;;;20.60;60.60;;;;;;5007207;28;20220;-92
2023/05/11 00:56:26;;;;;;;39.00;6.80;;;20.60;60.70;;;;;;5009524;28;20203;-92
2023/05/11 00:58:53;;;;;;;40.67;7.03;;;20.60;60.60;;;;;;5009835;28;20229;-93
2023/05/11 01:01:21;;;;;;;35.43;6.47;;;20.60;60.60;;;;;;5010520;28;20236;-95
2023/05/11 01:03:49;;;;;;;64.20;8.70;;;20.50;60.50;;;;;;5005912;28;20216;-93
2023/05/11 01:06:24;;;;;;;39.80;6.57;;;20.50;60.50;;;;;;5008184;28;20209;-93
2023/05/11 01:08:57;;;;;;;38.17;6.73;;;20.50;60.50;;;;;;5009669;28;20232;-94
2023/05/11 01:11:29;;;;;;;37.53;6.43;;;20.50;60.50;;;;;;5010206;28;20305;-94
2023/05/11 01:14:03;;;;;;;42.37;7.07;;;20.50;60.50;;;;;;5009268;28;20230;-94
2023/05/11 01:16:34;;;;;;;31.57;6.23;;;20.50;60.50;;;;;;5011119;28;20205;-93
2023/05/11 01:19:11;;;;;;;38.03;6.33;;;20.40;60.40;;;;;;5010177;28;20253;-95
2023/05/11 01:21:40;;;;;;;39.50;6.50;;;20.40;60.40;;;;;;5009447;28;20304;-92
2023/05/11 01:24:32;;;;;;;46.50;7.27;;;20.40;60.40;;;;;;5009414;28;20209;-92
2023/05/11 01:27:29;;;;;;;37.83;6.80;;;20.40;60.40;;;;;;4993461;28;20206;-94
2023/05/11 01:30:27;;;;;;;45.23;7.00;;;20.40;60.40;;;;;;5009936;28;20660;-93
2023/05/11 01:32:58;;;;;;;48.27;7.20;;;20.40;60.40;;;;;;5007331;28;20206;-94
2023/05/11 01:35:27;;;;;;;29.77;5.97;;;20.40;60.40;;;;;;5010929;28;20229;-94
2023/05/11 01:37:57;;;;;;;35.63;6.40;;;20.30;60.30;;;;;;5011821;28;20221;-96
2023/05/11 01:40:26;;;;;;;41.87;6.83;;;20.30;60.30;;;;;;5009052;28;20292;-93
2023/05/11 01:43:06;;;;;;;30.23;6.00;;;20.30;60.30;;;;;;5023597;28;20696;-93
2023/05/11 01:45:52;;;;;;;34.27;6.30;;;20.30;60.30;;;;;;5020131;28;20195;-91
2023/05/11 01:48:27;;;;;;;30.60;5.57;;;20.30;60.30;;;;;;5018771;28;20261;-93
2023/05/11 01:51:05;;;;;;;22.57;5.97;;;20.30;60.30;;;;;;5024641;28;20223;-91
2023/05/11 01:53:41;;;;;;;31.63;6.17;;;20.30;60.30;;;;;;5023249;28;20213;-91
2023/05/11 01:56:20;;;;;;;24.97;5.83;;;20.20;60.20;;;;;;5024875;28;20201;-92
2023/05/11 01:58:54;;;;;;;23.00;5.73;;;20.20;60.20;;;;;;5020563;28;20232;-91
2023/05/11 02:01:25;;;;;;;34.03;6.57;;;20.20;60.20;;;;;;5027823;28;20205;-91
2023/05/11 02:04:09;;;;;;;25.40;5.27;;;20.20;60.20;;;;;;5033987;28;20205;-91
2023/05/11 02:06:42;;;;;;;28.70;5.63;;;20.20;60.20;;;;;;5025716;28;20276;-91
2023/05/11 02:09:21;;;;;;;33.53;6.60;;;20.20;60.30;;;;;;5032047;28;20229;-91
2023/05/11 02:12:02;;;;;;;36.57;6.27;;;20.20;60.20;;;;;;5036691;28;20193;-91
2023/05/11 02:14:53;;;;;;;18.03;5.60;;;20.20;60.30;;;;;;5029796;28;20232;-91
2023/05/11 02:17:26;;;;;;;32.20;6.40;;;20.20;60.20;;;;;;5024971;28;20205;-96
2023/05/11 02:19:54;;;;;;;24.90;5.30;;;20.10;60.20;;;;;;5025795;28;20221;-96
2023/05/11 02:22:24;;;;;;;26.47;6.37;;;20.10;60.20;;;;;;5015883;28;20222;-94
2023/05/11 02:24:51;;;;;;;27.90;6.13;;;20.10;60.30;;;;;;4996554;28;20693;-94
2023/05/11 02:27:18;;;;;;;22.30;5.37;;;20.10;60.30;;;;;;5007806;28;20220;-92
2023/05/11 02:29:45;;;;;;;18.40;5.63;;;20.10;60.30;;;;;;5011276;28;20198;-96
2023/05/11 02:32:17;;;;;;;23.47;5.40;;;20.10;60.30;;;;;;4996312;28;20209;-95
2023/05/11 02:34:54;;;;;;;32.07;6.47;;;20.10;60.30;;;;;;5008381;28;20209;-95
2023/05/11 02:37:25;;;;;;;27.23;5.90;;;20.10;60.30;;;;;;5011304;28;20280;-95
2023/05/11 02:39:58;;;;;;;33.87;6.20;;;20.00;60.20;;;;;;5012028;28;20197;-94
2023/05/11 02:42:29;;;;;;;32.73;6.73;;;20.00;60.20;;;;;;5010841;28;20201;-95
2023/05/11 02:45:02;;;;;;;33.80;6.20;;;20.00;60.30;;;;;;5011698;28;20207;-94
2023/05/11 02:47:32;;;;;;;41.87;6.83;;;20.00;60.20;;;;;;5010647;28;20248;-96
2023/05/11 02:50:03;;;;;;;31.37;6.00;;;20.00;60.30;;;;;;5010168;28;20240;-95
2023/05/11 02:52:33;;;;;;;35.37;6.37;;;20.00;60.30;;;;;;5009248;28;20277;-94
2023/05/11 02:55:02;;;;;;;35.43;6.57;;;20.00;60.20;;;;;;5009845;28;20241;-94
2023/05/11 02:57:29;;;;;;;31.87;6.63;;;20.00;60.30;;;;;;5009403;28;20713;-92
2023/05/11 02:59:57;;;;;;;43.47;6.80;;;20.00;60.30;;;;;;5009112;28;20662;-91
2023/05/11 03:02:24;;;;;;;40.47;6.97;;;20.00;60.30;;;;;;5006965;28;20197;-91
2023/05/11 03:04:51;;;;;;;43.00;7.07;;;20.00;60.30;;;;;;5002651;28;20233;-92
2023/05/11 03:07:20;;;;;;;42.90;7.23;;;20.00;60.30;;;;;;5008398;28;20201;-92
2023/05/11 03:09:47;;;;;;;38.07;6.90;;;19.90;60.20;;;;;;5009061;28;20320;-91
2023/05/11 03:12:15;;;;;;;37.20;7.13;;;19.90;60.30;;;;;;5008097;28;20209;-92
2023/05/11 03:14:43;;;;;;;34.27;6.80;;;19.90;60.20;;;;;;5007595;28;20229;-92
2023/05/11 03:17:11;;;;;;;41.40;7.20;;;20.00;60.30;;;;;;5008927;28;20312;-93
2023/05/11 03:19:40;;;;;;;40.70;7.30;;;19.90;60.30;;;;;;5008526;28;20225;-92
2023/05/11 03:22:09;;;;;;;35.87;6.80;;;19.90;60.30;;;;;;5008906;28;20245;-92
2023/05/11 03:24:38;;;;;;;45.73;7.53;;;19.90;60.30;;;;;;5008516;28;20233;-92
2023/05/11 03:27:07;;;;;;;38.67;7.17;;;19.90;60.30;;;;;;5009194;28;20288;-94
2023/05/11 03:29:37;;;;;;;42.80;7.37;;;19.90;60.30;;;;;;5008963;28;20261;-93
2023/05/11 03:32:04;;;;;;;36.63;6.53;;;19.90;60.30;;;;;;5009579;28;20194;-92
2023/05/11 03:34:33;;;;;;;61.63;8.90;;;19.90;60.30;;;;;;5008118;28;20608;-91
2023/05/11 03:37:01;;;;;;;39.20;7.03;;;19.90;60.30;;;;;;5008928;28;20213;-92
2023/05/11 03:39:30;;;;;;;41.73;7.20;;;19.80;60.20;;;;;;5008301;28;20251;-92
2023/05/11 03:42:02;;;;;;;52.40;8.07;;;19.90;60.30;;;;;;5008197;28;20320;-93
2023/05/11 03:44:31;;;;;;;32.93;7.20;;;19.80;60.20;;;;;;5009156;28;20703;-94
2023/05/11 03:47:01;;;;;;;23.37;5.87;;;19.80;60.20;;;;;;5008736;28;20220;-93
2023/05/11 03:49:29;;;;;;;30.17;6.47;;;19.80;60.30;;;;;;5008236;28;20583;-92
2023/05/11 03:51:57;;;;;;;42.87;7.40;;;19.80;60.20;;;;;;5009766;28;20214;-92
2023/05/11 03:54:24;;;;;;;35.97;6.90;;;19.80;60.20;;;;;;5011796;28;20299;-93
2023/05/11 03:56:51;;;;;;;28.00;6.17;;;19.80;60.20;;;;;;5012211;28;20237;-93
2023/05/11 03:59:20;;;;;;;37.63;6.77;;;19.80;60.30;;;;;;5009868;28;20574;-93
2023/05/11 04:01:51;;;;;;;32.27;6.73;;;19.80;60.20;;;;;;5012197;28;20288;-93
2023/05/11 04:04:18;;;;;;;44.07;8.03;;;19.80;60.20;;;;;;5010212;28;21338;-94
2023/05/11 04:06:45;;;;;;;40.30;7.30;;;19.80;60.20;;;;;;5012139;28;20212;-95
2023/05/11 04:09:12;;;;;;;37.53;6.73;;;19.80;60.20;;;;;;5012537;28;20751;-96
2023/05/11 04:11:39;;;;;;;41.90;7.07;;;19.80;60.20;;;;;;5010868;28;20255;-95
2023/05/11 04:14:06;;;;;;;26.87;6.07;;;19.80;60.20;;;;;;5011730;28;20300;-94
2023/05/11 04:16:36;;;;;;;28.93;6.40;;;19.80;61.00;;;;;;5012271;28;20205;-92
2023/05/11 04:19:03;;;;;;;24.77;6.13;;;19.70;60.20;;;;;;5011482;28;20288;-95
2023/05/11 04:21:31;;;;;;;33.40;6.50;;;19.70;60.10;;;;;;5010835;28;20300;-94
2023/05/11 04:23:58;;;;;;;38.70;7.37;;;19.70;60.20;;;;;;5010414;28;20265;-96
2023/05/11 04:26:25;;;;;;;23.23;5.40;;;19.70;60.20;;;;;;5012936;28;20698;-93
2023/05/11 04:28:52;;;;;;;32.17;6.50;;;19.70;60.20;;;;;;5012328;28;20923;-93
2023/05/11 04:31:20;;;;;;;30.50;6.30;;;19.70;60.30;;;;;;5011138;28;20212;-94
2023/05/11 04:33:49;;;;;;;32.33;6.43;;;19.70;60.20;;;;;;5010634;28;20198;-95
2023/05/11 04:36:16;;;;;;;27.60;5.97;;;19.70;60.20;;;;;;5012265;28;20225;-93
2023/05/11 04:38:43;;;;;;;30.53;6.57;;;19.70;60.20;;;;;;5011188;28;20243;-93
2023/05/11 04:41:10;;;;;;;32.10;6.20;;;19.70;60.20;;;;;;5011386;28;20244;-91
2023/05/11 04:43:37;;;;;;;30.23;6.30;;;19.70;60.20;;;;;;5011022;28;20573;-92
2023/05/11 04:46:04;;;;;;;30.13;6.37;;;19.70;60.30;;;;;;5011734;28;20282;-88
2023/05/11 04:48:31;;;;;;;28.77;5.93;;;19.70;60.30;;;;;;5011016;28;20229;-88
2023/05/11 04:50:59;;;;;;;38.03;7.20;;;19.70;60.30;;;;;;5010881;28;20208;-88
2023/05/11 04:53:26;;;;;;;31.40;6.20;;;19.70;60.30;;;;;;5006330;28;20814;-89
2023/05/11 04:55:53;;;;;;;28.33;6.43;;;19.70;60.30;;;;;;5010898;28;20624;-89
2023/05/11 04:58:20;;;;;;;32.83;6.33;;;19.60;60.20;;;;;;5009787;28;20201;-89
2023/05/11 05:00:49;;;;;;;32.87;5.90;;;19.70;60.30;;;;;;5009381;28;20336;-89
2023/05/11 05:03:16;;;;;;;31.57;6.07;;;19.70;60.30;;;;;;5007954;28;20212;-90
2023/05/11 05:05:43;;;;;;;30.33;5.90;;;19.60;60.20;;;;;;5009810;28;20208;-90
2023/05/11 05:08:12;;;;;;;29.13;5.80;;;19.60;60.20;;;;;;5009460;28;20741;-89
2023/05/11 05:10:39;;;;;;;30.97;6.17;;;19.60;60.20;;;;;;5009814;28;20206;-88
2023/05/11 05:13:06;;;;;;;43.57;7.50;;;19.60;60.30;;;;;;5010346;28;20275;-89
2023/05/11 05:15:33;;;;;;;36.80;6.83;;;19.60;60.30;;;;;;5004839;28;20212;-89
2023/05/11 05:18:01;;;;;;;37.73;6.50;;;19.60;60.30;;;;;;5009175;28;20796;-93
2023/05/11 05:20:28;;;;;;;31.50;6.60;;;19.60;60.30;;;;;;5008919;28;20270;-91
2023/05/11 05:22:57;;;;;;;49.70;8.00;;;19.60;60.30;;;;;;5005338;28;20241;-91
2023/05/11 05:25:26;;;;;;;41.63;7.57;;;19.50;60.20;;;;;;5007491;28;20865;-90
2023/05/11 05:27:53;;;;;;;31.07;6.23;;;19.60;60.40;;;;;;5003336;28;20209;-90
2023/05/11 05:30:20;;;;;;;44.67;7.40;;;19.60;60.30;;;;;;5009593;28;20236;-89
2023/05/11 05:32:49;;;;;;;32.70;6.87;;;19.60;60.30;;;;;;5010454;28;20296;-89
2023/05/11 05:35:16;;;;;;;37.43;6.87;;;19.60;60.40;;;;;;5010203;28;20657;-90
2023/05/11 05:37:43;;;;;;;45.63;7.87;;;19.60;60.40;;;;;;5008456;28;20216;-90
2023/05/11 05:40:11;;;;;;;42.97;7.43;;;19.60;60.40;;;;;;5008365;28;20284;-90
2023/05/11 05:42:39;;;;;;;43.37;7.93;;;19.60;60.40;;;;;;5010064;28;20298;-90
2023/05/11 05:45:07;;;;;;;35.03;7.33;;;19.60;60.40;;;;;;5008958;28;20679;-90
2023/05/11 05:47:34;;;;;;;41.00;7.60;;;19.60;60.40;;;;;;5008297;28;20221;-90
2023/05/11 05:50:01;;;;;;;34.33;7.17;;;19.60;60.40;;;;;;5010209;28;20260;-90
2023/05/11 05:52:28;;;;;;;37.37;7.83;;;19.60;60.40;;;;;;5010779;28;20237;-90
2023/05/11 05:54:55;;;;;;;42.13;8.17;;;19.60;60.40;;;;;;5030583;28;20201;-89
2023/05/11 05:57:23;;;;;;;33.73;8.00;;;19.60;60.40;;;;;;5032057;28;20229;-89
2023/05/11 05:59:51;;;;;;;41.20;8.53;;;19.60;60.40;;;;;;5014851;28;20213;-90
2023/05/11 06:02:18;;;;;;;47.07;8.73;;;19.70;60.50;;;;;;5011136;28;20202;-89
2023/05/11 06:04:46;;;;;;;27.40;7.10;;;19.60;60.40;;;;;;5012227;28;20725;-90
2023/05/11 06:07:19;;;;;;;31.53;7.70;;;19.60;60.40;;;;;;5011988;28;20198;-90
2023/05/11 06:09:46;;;;;;;35.37;8.10;;;19.60;60.40;;;;;;5008904;28;20341;-90
2023/05/11 06:12:16;;;;;;;33.00;8.10;;;19.70;60.50;;;;;;5011539;28;20320;-90
2023/05/11 06:14:43;;;;;;;41.87;8.97;;;19.60;60.40;;;;;;5014135;28;20204;-90
2023/05/11 06:17:11;;;;;;;46.33;9.23;;;19.60;60.40;;;;;;5010055;28;20272;-90
2023/05/11 06:19:39;;;;;;;61.00;10.53;;;19.60;60.40;;;;;;5007415;28;20209;-90
2023/05/11 06:22:06;;;;;;;43.97;8.50;;;19.60;60.40;;;;;;5004101;28;20208;-90
2023/05/11 06:24:33;;;;;;;42.30;9.17;;;19.60;60.40;;;;;;5009654;28;20201;-89
2023/05/11 06:27:00;;;;;;;55.07;10.73;;;19.60;60.40;;;;;;5009812;28;20717;-89
2023/05/11 06:29:27;;;;;;;98.43;13.90;;;19.60;60.40;;;;;;5000463;28;20229;-89
2023/05/11 06:31:54;;;;;;;40.37;9.33;;;19.70;60.60;;;;;;4997938;28;20213;-89
2023/05/11 06:34:23;;;;;;;39.33;9.37;;;19.60;60.50;;;;;;4997624;28;20292;-89
2023/05/11 06:36:50;;;;;;;38.17;8.30;;;19.60;60.40;;;;;;5009260;28;20241;-90
2023/05/11 06:39:17;;;;;;;48.87;9.90;;;19.60;60.40;;;;;;5008414;28;20201;-90
2023/05/11 06:41:44;;;;;;;37.23;8.17;;;19.70;60.50;;;;;;5008861;28;20320;-90
2023/05/11 06:44:12;;;;;;;44.27;9.83;;;19.70;60.50;;;;;;5006212;28;21048;-90
2023/05/11 06:46:39;;;;;;;40.83;8.97;;;19.70;60.60;;;;;;5008448;28;20630;-90
2023/05/11 06:49:07;;;;;;;45.27;9.07;;;19.70;60.50;;;;;;5006073;28;20298;-90
2023/05/11 06:51:35;;;;;;;43.37;9.77;;;19.70;60.50;;;;;;5009238;28;20209;-90
2023/05/11 06:54:02;;;;;;;36.50;9.60;;;19.70;60.50;;;;;;5008792;28;20582;-90
2023/05/11 06:56:30;;;;;;;39.80;9.57;;;19.70;60.60;;;;;;5009250;28;20205;-90
2023/05/11 06:58:57;;;;;;;48.20;10.17;;;19.70;60.50;;;;;;5008065;28;20205;-90
2023/05/11 07:01:24;;;;;;;60.53;10.90;;;19.70;60.50;;;;;;5006293;28;20236;-90
2023/05/11 07:03:54;;;;;;;45.00;9.20;;;19.70;60.50;;;;;;5006861;28;20264;-91
2023/05/11 07:06:21;;;;;;;46.00;9.50;;;19.70;60.60;;;;;;5008462;28;20244;-90
2023/05/11 07:08:49;;;;;;;36.37;8.90;;;19.70;60.50;;;;;;5012137;28;20708;-91
2023/05/11 07:11:17;;;;;;;48.47;10.07;;;19.70;60.60;;;;;;5010676;28;20280;-89
2023/05/11 07:13:44;;;;;;;62.50;11.87;;;19.70;60.50;;;;;;5006615;28;20190;-90
2023/05/11 07:16:13;;;;;;;47.23;10.17;;;19.70;60.50;;;;;;5002112;28;20209;-93
2023/05/11 07:18:40;;;;;;;53.60;10.47;;;19.80;60.70;;;;;;5007758;28;20773;-92
2023/05/11 07:21:07;;;;;;;41.03;9.27;;;19.80;60.70;;;;;;5006193;28;20209;-92
2023/05/11 07:23:34;;;;;;;42.03;9.27;;;19.80;60.70;;;;;;5007392;28;20213;-92
2023/05/11 07:26:07;;;;;;;43.27;9.83;;;19.80;60.70;;;;;;5005662;28;20208;-92
2023/05/11 07:28:36;;;;;;;32.97;8.27;;;19.70;60.60;;;;;;5007384;28;20208;-91
2023/05/11 07:31:04;;;;;;;46.37;9.70;;;19.80;60.70;;;;;;5007380;28;20333;-92
2023/05/11 07:33:36;;;;;;;31.30;9.43;;;19.80;60.70;;;;;;5008268;28;20245;-93
2023/05/11 07:36:04;;;;;;;40.23;9.43;;;19.80;60.70;;;;;;5009236;28;20202;-94
2023/05/11 07:38:31;;;;;;;37.73;9.50;;;19.80;60.70;;;;;;5008069;28;20210;-93
2023/05/11 07:40:58;;;;;;;46.30;10.00;;;19.80;60.70;;;;;;5009184;28;20287;-93
2023/05/11 07:43:27;;;;;;;47.73;10.10;;;19.80;60.70;;;;;;5006821;28;20243;-92
2023/05/11 07:45:54;;;;;;;34.07;9.63;;;19.80;60.70;;;;;;5003092;28;20239;-92
2023/05/11 07:48:24;;;;;;;43.90;9.93;;;19.80;61.50;;;;;;5003995;28;20279;-92
2023/05/11 07:50:51;;;;;;;32.97;9.43;;;19.80;60.70;;;;;;5005646;28;20252;-94
2023/05/11 07:53:18;;;;;;;31.40;10.07;;;19.90;60.80;;;;;;5008906;28;20216;-93
2023/05/11 07:55:45;;;;;;;33.53;9.43;;;19.90;60.70;;;;;;5003140;28;20209;-92
2023/05/11 07:58:15;;;;;;;32.67;9.63;;;19.90;60.80;;;;;;5007824;28;20233;-92
2023/05/11 08:00:43;;;;;;;36.73;10.07;;;19.90;60.80;;;;;;5007877;28;20236;-92
2023/05/11 08:03:10;;;;;;;41.93;9.80;;;19.90;60.90;;;;;;5010841;28;20190;-92
2023/05/11 08:05:38;;;;;;;47.70;10.00;;;19.90;60.90;;;;;;5011915;28;20235;-94
2023/05/11 08:08:05;;;;;;;53.80;11.50;;;19.90;61.70;;;;;;5004639;28;20256;-93
2023/05/11 08:10:32;;;;;;;36.57;10.87;;;19.90;60.80;;;;;;5006162;28;20239;-94
2023/05/11 08:12:59;;;;;;;39.10;10.20;;;19.90;60.80;;;;;;5007897;28;20214;-93
2023/05/11 08:15:27;;;;;;;28.73;9.50;;;20.00;61.00;;;;;;5008053;28;20304;-96
2023/05/11 08:17:56;;;;;;;29.20;9.37;;;20.00;61.00;;;;;;5009339;28;20315;-94
2023/05/11 08:20:24;;;;;;;29.43;9.23;;;20.00;61.10;;;;;;5008233;28;20205;-95
2023/05/11 08:22:52;;;;;;;35.70;10.67;;;20.10;61.10;;;;;;5007954;28;20736;-95
2023/05/11 08:25:19;;;;;;;51.20;11.03;;;20.00;61.00;;;;;;5005567;28;20256;-95
2023/05/11 08:27:46;;;;;;;38.07;9.87;;;20.00;61.10;;;;;;5009176;28;20205;-96
2023/05/11 08:30:17;;;;;;;18.83;8.10;;;20.00;61.00;;;;;;5019788;28;20229;-95
2023/05/11 08:32:51;;;;;;;27.70;9.63;;;20.00;61.10;;;;;;5028822;28;20206;-94
2023/05/11 08:39:13;;;;;;;30.37;9.37;;;20.10;61.20;;;;;;5036014;28;20198;-94
2023/05/11 08:41:58;;;;;;;26.07;9.33;;;20.10;61.10;;;;;;5011723;28;20206;-95
2023/05/11 08:44:59;;;;;;;22.90;8.80;;;20.10;61.10;;;;;;5040167;28;20192;-94
2023/05/11 08:50:25;;;;;;;16.17;8.47;;;20.10;61.10;;;;;;5035275;28;20217;-95
2023/05/11 08:53:21;;;;;;;19.07;8.50;;;20.10;61.10;;;;;;5030756;28;20230;-95
2023/05/11 08:56:18;;;;;;;25.33;8.97;;;20.20;61.20;;;;;;5025061;28;20699;-96
2023/05/11 09:01:58;;;;;;;33.53;9.10;;;20.20;61.30;;;;;;5035723;28;20233;-96
2023/05/11 09:04:47;;;;;;;50.90;10.83;;;20.20;61.20;;;;;;4993502;28;20233;-96
2023/05/11 09:07:16;;;;;;;40.80;10.07;;;20.20;61.30;;;;;;4992430;28;20210;-93
2023/05/11 09:09:46;;;;;;;41.67;10.57;;;20.20;61.30;;;;;;4992543;28;20273;-93
2023/05/11 09:12:13;;;;;;;31.07;8.83;;;20.20;61.30;;;;;;5013212;28;20209;-95
2023/05/11 09:14:40;;;;;;;26.00;8.20;;;20.20;61.30;;;;;;5010166;28;20327;-96
2023/05/11 09:17:24;;;;;;;44.80;9.30;;;20.20;61.30;;;;;;5012201;28;20287;-96
2023/05/11 09:20:01;;;;;;;45.43;10.07;;;20.30;61.40;;;;;;5012073;28;20221;-96
2023/05/11 09:22:44;;;;;;;;;;;;;;;;;;;;;
2023/05/11 09:25:15;;;;;;;53.37;10.00;;;20.30;61.40;;;;;;5010828;28;20662;-96
2023/05/11 09:27:42;;;;;;;28.03;8.00;;;20.30;61.40;;;;;;5010394;28;20337;-94
2023/05/11 09:30:15;;;;;;;30.50;7.70;;;20.30;61.30;;;;;;5010898;28;20324;-95
2023/05/11 09:32:52;;;;;;;36.87;9.07;;;20.40;61.50;;;;;;5007856;28;20268;-96
2023/05/11 09:35:21;;;;;;;44.53;9.23;;;20.40;61.50;;;;;;5016123;28;20229;-95
2023/05/11 09:37:59;;;;;;;22.27;7.20;;;20.40;61.40;;;;;;5029131;28;20198;-96
2023/05/11 09:40:50;;;;;;;64.90;10.43;;;20.40;61.50;;;;;;5034735;28;20183;-96
2023/05/11 09:43:19;;;;;;;39.33;8.80;;;20.40;61.40;;;;;;5035979;28;20182;-95
2023/05/11 09:45:51;;;;;;;25.27;7.07;;;20.40;61.40;;;;;;5026154;28;20190;-95
2023/05/11 09:48:28;;;;;;;25.67;7.07;;;20.40;61.40;;;;;;5031264;28;20220;-96
2023/05/11 09:51:06;;;;;;;23.40;7.10;;;20.40;61.40;;;;;;5022559;28;20233;-96
2023/05/11 09:53:42;;;;;;;20.27;6.37;;;20.50;61.40;;;;;;5023358;28;20216;-96
2023/05/11 09:56:11;;;;;;;30.13;7.63;;;20.50;61.40;;;;;;5018337;28;20289;-96
2023/05/11 09:58:50;;;;;;;27.87;7.97;;;20.50;61.40;;;;;;5014326;28;20650;-96
2023/05/11 10:01:27;;;;;;;34.30;7.80;;;20.50;61.50;;;;;;5012085;28;20255;-96
2023/05/11 10:03:54;;;;;;;26.87;6.93;;;20.50;61.40;;;;;;5007331;28;20205;-96
2023/05/11 10:06:23;;;;;;;23.10;7.17;;;20.50;61.40;;;;;;5009774;28;20205;-96
2023/05/11 10:08:50;;;;;;;29.63;7.13;;;20.50;61.40;;;;;;5009801;28;20209;-96
2023/05/11 10:11:22;;;;;;;20.17;6.70;;;20.50;61.40;;;;;;5009383;28;20225;-96
2023/05/11 10:13:50;;;;;;;31.20;6.67;;;20.50;61.40;;;;;;5012303;28;20205;-94
2023/05/11 10:16:20;;;;;;;29.53;6.90;;;20.60;61.50;;;;;;5018996;28;20229;-96
2023/05/11 10:18:47;;;;;;;31.87;7.47;;;20.50;61.40;;;;;;5018964;28;20244;-93
2023/05/11 10:21:16;;;;;;;33.07;7.83;;;20.60;61.50;;;;;;5008874;28;20245;-95
2023/05/11 10:23:44;;;;;;;25.27;6.80;;;20.60;61.50;;;;;;5010364;28;20296;-95
2023/05/11 10:26:11;;;;;;;29.63;6.83;;;20.60;61.50;;;;;;5010860;28;20712;-95
2023/05/11 10:28:41;;;;;;;43.50;8.57;;;20.60;61.60;;;;;;5009580;28;20216;-95
2023/05/11 10:31:09;;;;;;;30.90;7.37;;;20.60;61.50;;;;;;5006392;28;20320;-95
2023/05/11 10:33:37;;;;;;;53.27;8.93;;;20.60;61.60;;;;;;5007413;28;20210;-95
2023/05/11 10:36:05;;;;;;;25.97;7.00;;;20.60;61.50;;;;;;5007650;28;20768;-91
2023/05/11 10:38:32;;;;;;;29.07;7.33;;;20.60;61.50;;;;;;5008739;28;20205;-94
2023/05/11 10:41:23;;;;;;;32.00;7.33;;;20.60;61.50;;;;;;5008797;28;20212;-95
2023/05/11 10:44:10;;;;;;;32.10;7.97;;;20.60;61.50;;;;;;5009454;28;20308;-93
2023/05/11 10:46:56;;;;;;;39.67;7.80;;;20.60;61.50;;;;;;5009057;28;20229;-93
2023/05/11 10:49:57;;;;;;;47.07;8.57;;;20.70;61.60;;;;;;5005798;28;20210;-94
2023/05/11 10:52:58;;;;;;;31.73;8.17;;;20.70;61.60;;;;;;5009491;28;21027;-95
2023/05/11 10:55:38;;;;;;;39.80;7.90;;;20.70;61.60;;;;;;5009277;28;20224;-95
2023/05/11 10:58:09;;;;;;;28.10;6.93;;;20.70;61.60;;;;;;5009757;28;20303;-94
2023/05/11 11:01:16;;;;;;;29.87;7.10;;;20.80;61.70;;;;;;5009903;28;20251;-96
2023/05/11 11:03:56;;;;;;;28.73;6.97;;;20.70;61.70;;;;;;5009977;28;20268;-95
2023/05/11 11:06:24;;;;;;;31.90;6.77;;;20.70;61.70;;;;;;5002337;28;20260;-95
2023/05/11 11:08:59;;;;;;;37.50;7.73;;;20.80;61.70;;;;;;5003575;28;20806;-95
2023/05/11 11:11:30;;;;;;;31.87;6.90;;;20.80;61.80;;;;;;5015818;28;20250;-95
2023/05/11 11:14:01;;;;;;;27.80;6.70;;;20.80;62.60;;;;;;5009025;28;20220;-94
2023/05/11 11:16:34;;;;;;;23.27;6.00;;;20.80;61.80;;;;;;5008403;28;20228;-94
2023/05/11 11:19:38;;;;;;;28.30;6.60;;;20.80;61.80;;;;;;5010105;28;20288;-94
2023/05/11 11:22:26;;;;;;;22.13;6.40;;;20.80;61.90;;;;;;5004067;28;20201;-93
2023/05/11 11:24:53;;;;;;;35.90;7.13;;;20.80;61.80;;;;;;5005244;28;20630;-95
2023/05/11 11:27:58;;;;;;;30.27;6.47;;;20.90;61.90;;;;;;5009031;28;20209;-94
2023/05/11 11:30:27;;;;;;;34.97;7.17;;;20.90;62.00;;;;;;5007628;28;21003;-90
2023/05/11 11:33:36;;;;;;;58.73;9.33;;;20.90;62.00;;;;;;4996766;28;20206;-94
2023/05/11 11:36:03;;;;;;;38.63;7.30;;;20.90;62.10;;;;;;5007826;28;20743;-94
2023/05/11 11:38:32;;;;;;;37.07;7.53;;;20.90;61.90;;;;;;5008356;28;20200;-95
2023/05/11 11:40:59;;;;;;;38.43;7.70;;;20.90;62.00;;;;;;4993045;28;20328;-95
2023/05/11 11:43:29;;;;;;;46.30;7.97;;;20.90;62.00;;;;;;5008642;28;20201;-94
2023/05/11 11:45:57;;;;;;;39.47;7.73;;;20.90;62.00;;;;;;5007945;28;20241;-95
2023/05/11 11:48:31;;;;;;;44.53;7.77;;;21.00;62.10;;;;;;5008260;28;20210;-94
2023/05/11 11:51:02;;;;;;;44.10;7.57;;;21.00;62.10;;;;;;5008801;28;20219;-94
2023/05/11 11:53:58;;;;;;;41.93;7.73;;;21.00;62.10;;;;;;5009143;28;20209;-94
2023/05/11 11:56:41;;;;;;;40.50;7.83;;;21.00;62.20;;;;;;5008549;28;20319;-93
2023/05/11 11:59:12;;;;;;;40.97;7.70;;;21.00;62.20;;;;;;5005871;28;20296;-94
2023/05/11 12:01:40;;;;;;;38.17;7.60;;;21.00;62.10;;;;;;5008735;28;20308;-94
2023/05/11 12:04:41;;;;;;;42.53;7.53;;;21.10;63.00;;;;;;5007607;28;20202;-94
2023/05/11 12:07:12;;;;;;;44.63;8.10;;;21.00;62.20;;;;;;5008879;28;20348;-93
2023/05/11 12:09:42;;;;;;;35.67;6.97;;;21.10;62.20;;;;;;5008691;28;20202;-93
2023/05/11 12:12:13;;;;;;;47.23;7.60;;;21.10;62.20;;;;;;5009964;28;20329;-94
2023/05/11 12:14:47;;;;;;;38.83;7.50;;;21.10;62.30;;;;;;5007336;28;20249;-93
2023/05/11 12:17:26;;;;;;;54.53;8.57;;;21.10;62.30;;;;;;5000968;28;20197;-93
2023/05/11 12:19:56;;;;;;;41.33;7.33;;;21.20;62.50;;;;;;5011757;28;20213;-94
2023/05/11 12:22:23;;;;;;;39.03;7.63;;;21.20;62.40;;;;;;5011511;28;20202;-94
2023/05/11 12:24:51;;;;;;;56.03;8.50;;;21.20;62.40;;;;;;5008531;28;20287;-93
2023/05/11 12:27:18;;;;;;;49.23;8.33;;;21.20;62.40;;;;;;5010569;28;20733;-92
2023/05/11 12:29:49;;;;;;;43.87;7.63;;;21.20;62.50;;;;;;5010348;28;20226;-93
2023/05/11 12:32:26;;;;;;;37.47;6.70;;;21.30;62.60;;;;;;5009940;28;20233;-92
2023/05/11 12:35:03;;;;;;;40.43;6.57;;;21.30;62.60;;;;;;5009464;28;20204;-92
2023/05/11 12:37:30;;;;;;;52.73;7.67;;;21.30;62.60;;;;;;5009811;28;20201;-92
2023/05/11 12:39:59;;;;;;;37.87;6.40;;;21.30;62.60;;;;;;5008927;28;20240;-90
2023/05/11 12:42:26;;;;;;;45.83;7.87;;;21.40;62.70;;;;;;5008867;28;20674;-93
2023/05/11 12:44:54;;;;;;;58.23;9.47;;;21.40;62.70;;;;;;5010209;28;20241;-93
2023/05/11 12:47:21;;;;;;;45.30;8.30;;;21.40;62.70;;;;;;5011051;28;20237;-92
2023/05/11 12:49:48;;;;;;;38.93;8.33;;;21.50;62.80;;;;;;5011378;28;20208;-92
2023/05/11 12:52:17;;;;;;;51.90;9.33;;;21.50;62.90;;;;;;5008887;28;20701;-92
2023/05/11 12:54:51;;;;;;;35.67;8.03;;;21.50;63.00;;;;;;5010068;28;20284;-92
2023/05/11 12:57:25;;;;;;;46.23;8.30;;;21.50;63.00;;;;;;5010669;28;20208;-91
2023/05/11 13:00:08;;;;;;;68.23;10.50;;;21.60;63.10;;;;;;5010588;28;20204;-92
2023/05/11 13:02:35;;;;;;;39.77;7.77;;;21.60;63.10;;;;;;5009061;28;20215;-92
2023/05/11 13:05:19;;;;;;;41.40;7.73;;;21.60;62.90;;;;;;5009806;28;20260;-91
2023/05/11 13:07:47;;;;;;;58.33;9.60;;;21.70;63.10;;;;;;5009605;28;20686;-92
2023/05/11 13:10:27;;;;;;;53.97;8.67;;;21.70;63.00;;;;;;5008187;28;20205;-92